sensor_id;sensor_type;location;lat;lon;timestamp;P1;durP1;ratioP1;P2;durP2;ratioP2
8466;SDS011;4270;48.148;11.648;2024-03-02T00:01:14;12.07;;;8.67;;
8466;SDS011;4270;48.148;11.648;2024-03-02T00:03:39;13.97;;;9.07;;
8466;SDS011;4270;48.148;11.648;2024-03-02T00:06:05;13.00;;;9.63;;
8466;SDS011;4270;48.148;11.648;2024-03-02T00:08:31;11.97;;;9.47;;
8466;SDS011;4270;48.148;11.648;2024-03-02T00:10:57;13.47;;;10.00;;
8466;SDS011;4270;48.148;11.648;2024-03-02T00:13:22;12.40;;;9.17;;
8466;SDS011;4270;48.148;11.648;2024-03-02T00:15:48;12.40;;;9.10;;
8466;SDS011;4270;48.148;11.648;2024-03-02T00:18:18;13.63;;;10.30;;
8466;SDS011;4270;48.148;11.648;2024-03-02T00:20:43;14.13;;;9.37;;
8466;SDS011;4270;48.148;11.648;2024-03-02T00:23:09;14.67;;;10.50;;
8466;SDS011;4270;48.148;11.648;2024-03-02T00:25:43;14.10;;;10.10;;
8466;SDS011;4270;48.148;11.648;2024-03-02T00:28:18;14.40;;;10.90;;
8466;SDS011;4270;48.148;11.648;2024-03-02T00:33:15;14.80;;;10.30;;
8466;SDS011;4270;48.148;11.648;2024-03-02T00:35:40;15.80;;;11.00;;
8466;SDS011;4270;48.148;11.648;2024-03-02T00:38:08;17.10;;;12.13;;
8466;SDS011;4270;48.148;11.648;2024-03-02T00:40:34;16.10;;;12.00;;
8466;SDS011;4270;48.148;11.648;2024-03-02T00:42:59;15.43;;;11.40;;
8466;SDS011;4270;48.148;11.648;2024-03-02T00:45:25;17.20;;;11.30;;
8466;SDS011;4270;48.148;11.648;2024-03-02T00:47:50;15.03;;;10.87;;
8466;SDS011;4270;48.148;11.648;2024-03-02T00:50:16;13.40;;;10.00;;
8466;SDS011;4270;48.148;11.648;2024-03-02T00:52:41;15.00;;;10.70;;
8466;SDS011;4270;48.148;11.648;2024-03-02T00:55:06;13.20;;;9.90;;
8466;SDS011;4270;48.148;11.648;2024-03-02T00:57:33;11.80;;;8.97;;
8466;SDS011;4270;48.148;11.648;2024-03-02T00:59:59;17.03;;;10.93;;
8466;SDS011;4270;48.148;11.648;2024-03-02T01:02:24;12.90;;;9.27;;
8466;SDS011;4270;48.148;11.648;2024-03-02T01:04:49;14.77;;;9.77;;
8466;SDS011;4270;48.148;11.648;2024-03-02T01:07:15;17.60;;;10.23;;
8466;SDS011;4270;48.148;11.648;2024-03-02T01:09:40;11.47;;;8.50;;
8466;SDS011;4270;48.148;11.648;2024-03-02T01:12:06;13.87;;;10.10;;
8466;SDS011;4270;48.148;11.648;2024-03-02T01:14:31;14.57;;;9.90;;
8466;SDS011;4270;48.148;11.648;2024-03-02T01:16:56;14.07;;;10.00;;
8466;SDS011;4270;48.148;11.648;2024-03-02T01:19:22;12.53;;;10.20;;
8466;SDS011;4270;48.148;11.648;2024-03-02T01:21:47;13.20;;;9.57;;
8466;SDS011;4270;48.148;11.648;2024-03-02T01:24:12;12.70;;;9.23;;
8466;SDS011;4270;48.148;11.648;2024-03-02T01:26:38;13.70;;;9.27;;
8466;SDS011;4270;48.148;11.648;2024-03-02T01:29:03;13.10;;;9.30;;
8466;SDS011;4270;48.148;11.648;2024-03-02T01:31:28;12.57;;;9.50;;
8466;SDS011;4270;48.148;11.648;2024-03-02T01:33:54;13.13;;;9.37;;
8466;SDS011;4270;48.148;11.648;2024-03-02T01:36:19;11.40;;;8.63;;
8466;SDS011;4270;48.148;11.648;2024-03-02T01:38:44;12.57;;;8.90;;
8466;SDS011;4270;48.148;11.648;2024-03-02T01:41:09;13.53;;;9.67;;
8466;SDS011;4270;48.148;11.648;2024-03-02T01:43:34;11.90;;;8.40;;
8466;SDS011;4270;48.148;11.648;2024-03-02T01:46:00;12.67;;;8.17;;
8466;SDS011;4270;48.148;11.648;2024-03-02T01:48:25;11.23;;;8.50;;
8466;SDS011;4270;48.148;11.648;2024-03-02T01:50:50;10.60;;;8.23;;
8466;SDS011;4270;48.148;11.648;2024-03-02T01:53:15;11.80;;;8.50;;
8466;SDS011;4270;48.148;11.648;2024-03-02T01:55:41;11.70;;;8.70;;
8466;SDS011;4270;48.148;11.648;2024-03-02T01:58:06;13.30;;;8.57;;
8466;SDS011;4270;48.148;11.648;2024-03-02T02:00:32;11.53;;;8.20;;
8466;SDS011;4270;48.148;11.648;2024-03-02T02:02:57;11.23;;;8.33;;
8466;SDS011;4270;48.148;11.648;2024-03-02T02:05:22;11.80;;;8.70;;
8466;SDS011;4270;48.148;11.648;2024-03-02T02:07:48;11.60;;;8.33;;
8466;SDS011;4270;48.148;11.648;2024-03-02T02:10:13;11.27;;;8.13;;
8466;SDS011;4270;48.148;11.648;2024-03-02T02:12:39;9.90;;;7.60;;
8466;SDS011;4270;48.148;11.648;2024-03-02T02:15:21;12.43;;;8.97;;
8466;SDS011;4270;48.148;11.648;2024-03-02T02:17:46;9.93;;;8.13;;
8466;SDS011;4270;48.148;11.648;2024-03-02T02:20:11;12.70;;;8.43;;
8466;SDS011;4270;48.148;11.648;2024-03-02T02:22:36;11.90;;;8.30;;
8466;SDS011;4270;48.148;11.648;2024-03-02T02:25:02;13.50;;;9.07;;
8466;SDS011;4270;48.148;11.648;2024-03-02T02:27:27;11.60;;;8.47;;
8466;SDS011;4270;48.148;11.648;2024-03-02T02:29:52;12.70;;;8.73;;
8466;SDS011;4270;48.148;11.648;2024-03-02T02:32:17;12.83;;;9.37;;
8466;SDS011;4270;48.148;11.648;2024-03-02T02:34:42;11.43;;;8.60;;
8466;SDS011;4270;48.148;11.648;2024-03-02T02:37:07;12.40;;;9.13;;
8466;SDS011;4270;48.148;11.648;2024-03-02T02:39:33;13.17;;;9.80;;
8466;SDS011;4270;48.148;11.648;2024-03-02T02:41:58;12.30;;;9.60;;
8466;SDS011;4270;48.148;11.648;2024-03-02T02:44:24;13.30;;;10.53;;
8466;SDS011;4270;48.148;11.648;2024-03-02T02:46:50;12.70;;;9.90;;
8466;SDS011;4270;48.148;11.648;2024-03-02T02:49:15;14.07;;;10.13;;
8466;SDS011;4270;48.148;11.648;2024-03-02T02:51:40;12.40;;;9.57;;
8466;SDS011;4270;48.148;11.648;2024-03-02T02:54:05;16.60;;;9.97;;
8466;SDS011;4270;48.148;11.648;2024-03-02T02:56:30;14.83;;;9.60;;
8466;SDS011;4270;48.148;11.648;2024-03-02T02:58:56;13.43;;;10.30;;
8466;SDS011;4270;48.148;11.648;2024-03-02T03:01:21;14.20;;;9.53;;
8466;SDS011;4270;48.148;11.648;2024-03-02T03:03:46;14.50;;;10.10;;
8466;SDS011;4270;48.148;11.648;2024-03-02T03:06:11;13.40;;;10.20;;
8466;SDS011;4270;48.148;11.648;2024-03-02T03:08:37;12.03;;;9.20;;
8466;SDS011;4270;48.148;11.648;2024-03-02T03:11:02;11.90;;;9.77;;
8466;SDS011;4270;48.148;11.648;2024-03-02T03:13:27;14.60;;;9.47;;
8466;SDS011;4270;48.148;11.648;2024-03-02T03:15:52;12.80;;;10.67;;
8466;SDS011;4270;48.148;11.648;2024-03-02T03:18:17;13.10;;;9.10;;
8466;SDS011;4270;48.148;11.648;2024-03-02T03:20:43;10.83;;;8.60;;
8466;SDS011;4270;48.148;11.648;2024-03-02T03:23:08;10.93;;;8.50;;
8466;SDS011;4270;48.148;11.648;2024-03-02T03:25:33;12.40;;;9.90;;
8466;SDS011;4270;48.148;11.648;2024-03-02T03:27:58;14.37;;;9.40;;
8466;SDS011;4270;48.148;11.648;2024-03-02T03:30:24;11.50;;;8.50;;
8466;SDS011;4270;48.148;11.648;2024-03-02T03:32:49;14.53;;;10.00;;
8466;SDS011;4270;48.148;11.648;2024-03-02T03:35:14;12.33;;;9.93;;
8466;SDS011;4270;48.148;11.648;2024-03-02T03:37:43;12.87;;;8.90;;
8466;SDS011;4270;48.148;11.648;2024-03-02T03:40:08;11.50;;;9.50;;
8466;SDS011;4270;48.148;11.648;2024-03-02T03:42:37;13.10;;;8.70;;
8466;SDS011;4270;48.148;11.648;2024-03-02T03:45:03;11.80;;;9.40;;
8466;SDS011;4270;48.148;11.648;2024-03-02T03:47:28;11.60;;;8.83;;
8466;SDS011;4270;48.148;11.648;2024-03-02T03:49:53;15.40;;;9.43;;
8466;SDS011;4270;48.148;11.648;2024-03-02T03:52:19;11.93;;;8.77;;
8466;SDS011;4270;48.148;11.648;2024-03-02T03:54:44;14.20;;;9.30;;
8466;SDS011;4270;48.148;11.648;2024-03-02T03:57:09;13.17;;;9.67;;
8466;SDS011;4270;48.148;11.648;2024-03-02T03:59:34;12.57;;;8.87;;
8466;SDS011;4270;48.148;11.648;2024-03-02T04:02:02;14.80;;;10.30;;
8466;SDS011;4270;48.148;11.648;2024-03-02T04:04:27;17.20;;;10.00;;
8466;SDS011;4270;48.148;11.648;2024-03-02T04:06:53;11.50;;;9.87;;
8466;SDS011;4270;48.148;11.648;2024-03-02T04:09:18;15.87;;;9.63;;
8466;SDS011;4270;48.148;11.648;2024-03-02T04:11:43;15.70;;;10.17;;
8466;SDS011;4270;48.148;11.648;2024-03-02T04:14:08;11.10;;;9.10;;
8466;SDS011;4270;48.148;11.648;2024-03-02T04:16:33;12.43;;;9.40;;
8466;SDS011;4270;48.148;11.648;2024-03-02T04:18:58;11.00;;;9.23;;
8466;SDS011;4270;48.148;11.648;2024-03-02T04:21:24;13.90;;;9.50;;
8466;SDS011;4270;48.148;11.648;2024-03-02T04:23:49;12.23;;;9.50;;
8466;SDS011;4270;48.148;11.648;2024-03-02T04:26:14;14.90;;;10.23;;
8466;SDS011;4270;48.148;11.648;2024-03-02T04:28:44;13.97;;;10.43;;
8466;SDS011;4270;48.148;11.648;2024-03-02T04:31:09;14.47;;;10.80;;
8466;SDS011;4270;48.148;11.648;2024-03-02T04:33:34;16.30;;;10.83;;
8466;SDS011;4270;48.148;11.648;2024-03-02T04:36:00;14.67;;;10.63;;
8466;SDS011;4270;48.148;11.648;2024-03-02T04:38:25;15.30;;;11.23;;
8466;SDS011;4270;48.148;11.648;2024-03-02T04:40:50;14.37;;;10.60;;
8466;SDS011;4270;48.148;11.648;2024-03-02T04:43:15;14.93;;;10.83;;
8466;SDS011;4270;48.148;11.648;2024-03-02T04:45:41;16.23;;;10.93;;
8466;SDS011;4270;48.148;11.648;2024-03-02T04:48:08;15.07;;;11.20;;
8466;SDS011;4270;48.148;11.648;2024-03-02T04:50:33;14.83;;;10.60;;
8466;SDS011;4270;48.148;11.648;2024-03-02T04:52:59;18.60;;;12.03;;
8466;SDS011;4270;48.148;11.648;2024-03-02T04:55:24;19.60;;;13.50;;
8466;SDS011;4270;48.148;11.648;2024-03-02T04:57:49;17.80;;;11.30;;
8466;SDS011;4270;48.148;11.648;2024-03-02T05:00:15;16.83;;;11.70;;
8466;SDS011;4270;48.148;11.648;2024-03-02T05:02:41;14.27;;;11.77;;
8466;SDS011;4270;48.148;11.648;2024-03-02T05:05:06;16.43;;;12.30;;
8466;SDS011;4270;48.148;11.648;2024-03-02T05:07:31;15.87;;;12.47;;
8466;SDS011;4270;48.148;11.648;2024-03-02T05:09:56;14.57;;;11.00;;
8466;SDS011;4270;48.148;11.648;2024-03-02T05:12:21;15.10;;;11.57;;
8466;SDS011;4270;48.148;11.648;2024-03-02T05:15:05;15.97;;;12.03;;
8466;SDS011;4270;48.148;11.648;2024-03-02T05:17:32;16.50;;;11.60;;
8466;SDS011;4270;48.148;11.648;2024-03-02T05:19:57;17.77;;;12.33;;
8466;SDS011;4270;48.148;11.648;2024-03-02T05:22:22;21.30;;;12.97;;
8466;SDS011;4270;48.148;11.648;2024-03-02T05:24:48;20.60;;;12.20;;
8466;SDS011;4270;48.148;11.648;2024-03-02T05:27:13;20.77;;;13.80;;
8466;SDS011;4270;48.148;11.648;2024-03-02T05:29:38;20.07;;;11.97;;
8466;SDS011;4270;48.148;11.648;2024-03-02T05:32:03;18.30;;;12.40;;
8466;SDS011;4270;48.148;11.648;2024-03-02T05:34:28;16.83;;;12.57;;
8466;SDS011;4270;48.148;11.648;2024-03-02T05:36:55;18.73;;;12.60;;
8466;SDS011;4270;48.148;11.648;2024-03-02T05:39:21;19.53;;;13.97;;
8466;SDS011;4270;48.148;11.648;2024-03-02T05:41:46;20.80;;;13.90;;
8466;SDS011;4270;48.148;11.648;2024-03-02T05:44:11;20.40;;;13.30;;
8466;SDS011;4270;48.148;11.648;2024-03-02T05:46:37;22.60;;;14.30;;
8466;SDS011;4270;48.148;11.648;2024-03-02T05:49:02;21.30;;;13.70;;
8466;SDS011;4270;48.148;11.648;2024-03-02T05:51:27;18.17;;;12.67;;
8466;SDS011;4270;48.148;11.648;2024-03-02T05:53:53;23.67;;;13.80;;
8466;SDS011;4270;48.148;11.648;2024-03-02T05:56:18;16.53;;;12.40;;
8466;SDS011;4270;48.148;11.648;2024-03-02T05:58:43;18.33;;;11.83;;
8466;SDS011;4270;48.148;11.648;2024-03-02T06:01:27;17.60;;;11.97;;
8466;SDS011;4270;48.148;11.648;2024-03-02T06:03:54;18.30;;;12.30;;
8466;SDS011;4270;48.148;11.648;2024-03-02T06:06:19;17.53;;;13.20;;
8466;SDS011;4270;48.148;11.648;2024-03-02T06:08:45;18.30;;;11.90;;
8466;SDS011;4270;48.148;11.648;2024-03-02T06:11:11;16.70;;;11.27;;
8466;SDS011;4270;48.148;11.648;2024-03-02T06:13:36;17.23;;;12.20;;
8466;SDS011;4270;48.148;11.648;2024-03-02T06:16:01;17.17;;;12.00;;
8466;SDS011;4270;48.148;11.648;2024-03-02T06:18:26;16.03;;;12.37;;
8466;SDS011;4270;48.148;11.648;2024-03-02T06:20:52;20.23;;;12.60;;
8466;SDS011;4270;48.148;11.648;2024-03-02T06:23:17;18.73;;;12.70;;
8466;SDS011;4270;48.148;11.648;2024-03-02T06:25:43;21.93;;;11.67;;
8466;SDS011;4270;48.148;11.648;2024-03-02T06:28:08;17.57;;;12.47;;
8466;SDS011;4270;48.148;11.648;2024-03-02T06:30:33;20.37;;;12.90;;
8466;SDS011;4270;48.148;11.648;2024-03-02T06:32:58;14.97;;;11.97;;
8466;SDS011;4270;48.148;11.648;2024-03-02T06:35:23;19.10;;;11.60;;
8466;SDS011;4270;48.148;11.648;2024-03-02T06:37:49;18.33;;;12.40;;
8466;SDS011;4270;48.148;11.648;2024-03-02T06:40:14;17.40;;;12.10;;
8466;SDS011;4270;48.148;11.648;2024-03-02T06:42:39;16.50;;;12.03;;
8466;SDS011;4270;48.148;11.648;2024-03-02T06:45:04;17.67;;;12.33;;
8466;SDS011;4270;48.148;11.648;2024-03-02T06:47:30;18.63;;;13.80;;
8466;SDS011;4270;48.148;11.648;2024-03-02T06:49:55;21.90;;;14.60;;
8466;SDS011;4270;48.148;11.648;2024-03-02T06:52:22;21.60;;;14.60;;
8466;SDS011;4270;48.148;11.648;2024-03-02T06:54:47;18.80;;;13.57;;
8466;SDS011;4270;48.148;11.648;2024-03-02T06:57:12;20.37;;;14.30;;
8466;SDS011;4270;48.148;11.648;2024-03-02T06:59:37;20.73;;;13.17;;
8466;SDS011;4270;48.148;11.648;2024-03-02T07:02:03;19.70;;;12.73;;
8466;SDS011;4270;48.148;11.648;2024-03-02T07:04:28;19.63;;;14.40;;
8466;SDS011;4270;48.148;11.648;2024-03-02T07:06:53;23.83;;;14.00;;
8466;SDS011;4270;48.148;11.648;2024-03-02T07:09:19;17.77;;;13.80;;
8466;SDS011;4270;48.148;11.648;2024-03-02T07:11:47;19.00;;;13.37;;
8466;SDS011;4270;48.148;11.648;2024-03-02T07:14:12;20.90;;;13.60;;
8466;SDS011;4270;48.148;11.648;2024-03-02T07:16:38;21.13;;;14.20;;
8466;SDS011;4270;48.148;11.648;2024-03-02T07:19:04;18.40;;;13.43;;
8466;SDS011;4270;48.148;11.648;2024-03-02T07:21:30;19.60;;;14.13;;
8466;SDS011;4270;48.148;11.648;2024-03-02T07:23:57;17.03;;;13.17;;
8466;SDS011;4270;48.148;11.648;2024-03-02T07:26:22;19.70;;;13.10;;
8466;SDS011;4270;48.148;11.648;2024-03-02T07:28:48;16.47;;;12.83;;
8466;SDS011;4270;48.148;11.648;2024-03-02T07:31:14;16.70;;;12.67;;
8466;SDS011;4270;48.148;11.648;2024-03-02T07:33:39;17.60;;;12.73;;
8466;SDS011;4270;48.148;11.648;2024-03-02T07:36:04;25.63;;;13.50;;
8466;SDS011;4270;48.148;11.648;2024-03-02T07:38:29;19.10;;;13.40;;
8466;SDS011;4270;48.148;11.648;2024-03-02T07:40:55;15.67;;;12.57;;
8466;SDS011;4270;48.148;11.648;2024-03-02T07:43:20;19.17;;;12.77;;
8466;SDS011;4270;48.148;11.648;2024-03-02T07:45:46;17.00;;;12.23;;
8466;SDS011;4270;48.148;11.648;2024-03-02T07:48:11;18.30;;;11.57;;
8466;SDS011;4270;48.148;11.648;2024-03-02T07:50:36;15.03;;;11.90;;
8466;SDS011;4270;48.148;11.648;2024-03-02T07:53:03;14.70;;;11.37;;
8466;SDS011;4270;48.148;11.648;2024-03-02T07:55:29;13.23;;;11.20;;
8466;SDS011;4270;48.148;11.648;2024-03-02T07:57:55;13.43;;;11.33;;
8466;SDS011;4270;48.148;11.648;2024-03-02T08:00:20;13.63;;;11.70;;
8466;SDS011;4270;48.148;11.648;2024-03-02T08:02:45;12.47;;;10.80;;
8466;SDS011;4270;48.148;11.648;2024-03-02T08:05:11;13.63;;;10.73;;
8466;SDS011;4270;48.148;11.648;2024-03-02T08:07:36;12.10;;;10.83;;
8466;SDS011;4270;48.148;11.648;2024-03-02T08:10:01;13.73;;;11.40;;
8466;SDS011;4270;48.148;11.648;2024-03-02T08:12:26;17.57;;;12.30;;
8466;SDS011;4270;48.148;11.648;2024-03-02T08:14:52;15.40;;;12.50;;
8466;SDS011;4270;48.148;11.648;2024-03-02T08:17:17;16.80;;;13.00;;
8466;SDS011;4270;48.148;11.648;2024-03-02T08:19:42;17.50;;;13.03;;
8466;SDS011;4270;48.148;11.648;2024-03-02T08:22:07;14.80;;;12.43;;
8466;SDS011;4270;48.148;11.648;2024-03-02T08:24:33;13.73;;;11.37;;
8466;SDS011;4270;48.148;11.648;2024-03-02T08:26:59;14.20;;;12.13;;
8466;SDS011;4270;48.148;11.648;2024-03-02T08:29:24;16.03;;;12.00;;
8466;SDS011;4270;48.148;11.648;2024-03-02T08:31:50;15.23;;;12.87;;
8466;SDS011;4270;48.148;11.648;2024-03-02T08:34:15;15.17;;;12.87;;
8466;SDS011;4270;48.148;11.648;2024-03-02T08:36:40;17.13;;;12.70;;
8466;SDS011;4270;48.148;11.648;2024-03-02T08:39:05;13.00;;;11.60;;
8466;SDS011;4270;48.148;11.648;2024-03-02T08:41:32;14.40;;;12.70;;
8466;SDS011;4270;48.148;11.648;2024-03-02T08:43:57;13.33;;;11.23;;
8466;SDS011;4270;48.148;11.648;2024-03-02T08:46:23;13.77;;;12.30;;
8466;SDS011;4270;48.148;11.648;2024-03-02T08:48:48;14.30;;;12.10;;
8466;SDS011;4270;48.148;11.648;2024-03-02T08:51:13;14.63;;;12.97;;
8466;SDS011;4270;48.148;11.648;2024-03-02T08:53:38;13.60;;;12.20;;
8466;SDS011;4270;48.148;11.648;2024-03-02T08:56:04;14.60;;;13.10;;
8466;SDS011;4270;48.148;11.648;2024-03-02T08:58:30;14.80;;;13.40;;
8466;SDS011;4270;48.148;11.648;2024-03-02T09:00:55;13.53;;;12.23;;
8466;SDS011;4270;48.148;11.648;2024-03-02T09:03:20;12.30;;;11.10;;
8466;SDS011;4270;48.148;11.648;2024-03-02T09:05:45;13.33;;;11.87;;
8466;SDS011;4270;48.148;11.648;2024-03-02T09:08:11;14.67;;;13.17;;
8466;SDS011;4270;48.148;11.648;2024-03-02T09:10:36;12.63;;;11.43;;
8466;SDS011;4270;48.148;11.648;2024-03-02T09:13:03;13.80;;;12.30;;
8466;SDS011;4270;48.148;11.648;2024-03-02T09:15:28;14.13;;;12.63;;
8466;SDS011;4270;48.148;11.648;2024-03-02T09:17:53;12.27;;;11.10;;
8466;SDS011;4270;48.148;11.648;2024-03-02T09:20:19;9.70;;;8.80;;
8466;SDS011;4270;48.148;11.648;2024-03-02T09:22:44;11.00;;;10.00;;
8466;SDS011;4270;48.148;11.648;2024-03-02T09:25:12;11.33;;;10.10;;
8466;SDS011;4270;48.148;11.648;2024-03-02T09:27:37;11.30;;;10.30;;
8466;SDS011;4270;48.148;11.648;2024-03-02T09:30:04;12.10;;;10.90;;
8466;SDS011;4270;48.148;11.648;2024-03-02T09:32:30;10.23;;;9.33;;
8466;SDS011;4270;48.148;11.648;2024-03-02T09:34:55;13.10;;;11.80;;
8466;SDS011;4270;48.148;11.648;2024-03-02T09:37:21;14.00;;;11.10;;
8466;SDS011;4270;48.148;11.648;2024-03-02T09:39:46;13.00;;;11.67;;
8466;SDS011;4270;48.148;11.648;2024-03-02T09:42:11;13.77;;;12.10;;
8466;SDS011;4270;48.148;11.648;2024-03-02T09:44:37;14.20;;;12.80;;
8466;SDS011;4270;48.148;11.648;2024-03-02T09:47:02;13.80;;;12.40;;
8466;SDS011;4270;48.148;11.648;2024-03-02T09:49:28;14.67;;;13.27;;
8466;SDS011;4270;48.148;11.648;2024-03-02T09:51:53;16.03;;;14.43;;
8466;SDS011;4270;48.148;11.648;2024-03-02T09:54:18;14.73;;;13.23;;
8466;SDS011;4270;48.148;11.648;2024-03-02T09:56:44;13.07;;;11.67;;
8466;SDS011;4270;48.148;11.648;2024-03-02T09:59:09;13.13;;;11.70;;
8466;SDS011;4270;48.148;11.648;2024-03-02T10:01:34;14.27;;;10.70;;
8466;SDS011;4270;48.148;11.648;2024-03-02T10:04:00;13.47;;;12.07;;
8466;SDS011;4270;48.148;11.648;2024-03-02T10:06:26;13.23;;;11.83;;
8466;SDS011;4270;48.148;11.648;2024-03-02T10:08:51;12.10;;;10.90;;
8466;SDS011;4270;48.148;11.648;2024-03-02T10:16:33;13.70;;;11.50;;
8466;SDS011;4270;48.148;11.648;2024-03-02T10:18:58;13.53;;;12.23;;
8466;SDS011;4270;48.148;11.648;2024-03-02T10:21:23;14.40;;;12.90;;
8466;SDS011;4270;48.148;11.648;2024-03-02T10:23:50;12.83;;;11.53;;
8466;SDS011;4270;48.148;11.648;2024-03-02T10:26:18;13.07;;;11.67;;
8466;SDS011;4270;48.148;11.648;2024-03-02T10:28:46;14.50;;;12.20;;
8466;SDS011;4270;48.148;11.648;2024-03-02T10:31:12;14.53;;;12.83;;
8466;SDS011;4270;48.148;11.648;2024-03-02T10:33:38;13.70;;;12.30;;
8466;SDS011;4270;48.148;11.648;2024-03-02T10:36:03;12.00;;;10.80;;
8466;SDS011;4270;48.148;11.648;2024-03-02T10:38:29;12.30;;;10.23;;
8466;SDS011;4270;48.148;11.648;2024-03-02T10:40:55;14.23;;;12.40;;
8466;SDS011;4270;48.148;11.648;2024-03-02T10:43:21;14.60;;;13.10;;
8466;SDS011;4270;48.148;11.648;2024-03-02T10:45:47;16.10;;;13.70;;
8466;SDS011;4270;48.148;11.648;2024-03-02T10:48:14;15.00;;;13.40;;
8466;SDS011;4270;48.148;11.648;2024-03-02T10:50:39;17.37;;;14.03;;
8466;SDS011;4270;48.148;11.648;2024-03-02T10:53:04;15.03;;;13.07;;
8466;SDS011;4270;48.148;11.648;2024-03-02T10:55:30;18.30;;;13.53;;
8466;SDS011;4270;48.148;11.648;2024-03-02T10:57:56;16.70;;;13.73;;
8466;SDS011;4270;48.148;11.648;2024-03-02T11:00:24;18.57;;;12.87;;
8466;SDS011;4270;48.148;11.648;2024-03-02T11:02:54;15.93;;;13.20;;
8466;SDS011;4270;48.148;11.648;2024-03-02T11:05:31;17.23;;;13.27;;
8466;SDS011;4270;48.148;11.648;2024-03-02T11:07:59;18.93;;;13.83;;
8466;SDS011;4270;48.148;11.648;2024-03-02T11:10:26;21.60;;;13.50;;
8466;SDS011;4270;48.148;11.648;2024-03-02T11:13:00;17.60;;;12.70;;
8466;SDS011;4270;48.148;11.648;2024-03-02T11:15:27;20.20;;;14.67;;
8466;SDS011;4270;48.148;11.648;2024-03-02T11:17:52;20.27;;;13.60;;
8466;SDS011;4270;48.148;11.648;2024-03-02T11:20:18;17.77;;;13.20;;
8466;SDS011;4270;48.148;11.648;2024-03-02T11:22:44;17.87;;;12.80;;
8466;SDS011;4270;48.148;11.648;2024-03-02T11:25:22;18.23;;;11.87;;
8466;SDS011;4270;48.148;11.648;2024-03-02T11:30:48;16.50;;;10.60;;
8466;SDS011;4270;48.148;11.648;2024-03-02T11:33:11;18.00;;;11.90;;
8466;SDS011;4270;48.148;11.648;2024-03-02T11:35:36;16.63;;;11.97;;
8466;SDS011;4270;48.148;11.648;2024-03-02T11:38:04;18.97;;;12.60;;
8466;SDS011;4270;48.148;11.648;2024-03-02T11:40:31;16.30;;;11.30;;
8466;SDS011;4270;48.148;11.648;2024-03-02T11:42:56;15.33;;;11.27;;
8466;SDS011;4270;48.148;11.648;2024-03-02T11:45:22;17.67;;;11.13;;
8466;SDS011;4270;48.148;11.648;2024-03-02T11:47:50;17.50;;;11.87;;
8466;SDS011;4270;48.148;11.648;2024-03-02T11:50:15;20.03;;;11.80;;
8466;SDS011;4270;48.148;11.648;2024-03-02T11:52:41;16.03;;;11.40;;
8466;SDS011;4270;48.148;11.648;2024-03-02T11:55:06;16.27;;;11.40;;
8466;SDS011;4270;48.148;11.648;2024-03-02T11:57:34;18.93;;;12.90;;
8466;SDS011;4270;48.148;11.648;2024-03-02T12:00:00;19.30;;;11.80;;
8466;SDS011;4270;48.148;11.648;2024-03-02T12:02:28;17.80;;;11.90;;
8466;SDS011;4270;48.148;11.648;2024-03-02T12:04:54;17.97;;;11.40;;
8466;SDS011;4270;48.148;11.648;2024-03-02T12:07:19;17.73;;;12.20;;
8466;SDS011;4270;48.148;11.648;2024-03-02T12:09:48;17.07;;;11.77;;
8466;SDS011;4270;48.148;11.648;2024-03-02T12:12:13;16.13;;;10.70;;
8466;SDS011;4270;48.148;11.648;2024-03-02T12:14:49;16.77;;;11.70;;
8466;SDS011;4270;48.148;11.648;2024-03-02T12:17:14;16.13;;;10.90;;
8466;SDS011;4270;48.148;11.648;2024-03-02T12:19:39;19.30;;;13.40;;
8466;SDS011;4270;48.148;11.648;2024-03-02T12:22:05;21.63;;;14.00;;
8466;SDS011;4270;48.148;11.648;2024-03-02T12:24:30;22.03;;;15.73;;
8466;SDS011;4270;48.148;11.648;2024-03-02T12:26:55;25.40;;;16.40;;
8466;SDS011;4270;48.148;11.648;2024-03-02T12:29:21;25.23;;;16.30;;
8466;SDS011;4270;48.148;11.648;2024-03-02T12:31:50;22.10;;;15.77;;
8466;SDS011;4270;48.148;11.648;2024-03-02T12:34:17;19.97;;;13.87;;
8466;SDS011;4270;48.148;11.648;2024-03-02T12:36:42;19.63;;;14.30;;
8466;SDS011;4270;48.148;11.648;2024-03-02T12:39:08;20.97;;;14.30;;
8466;SDS011;4270;48.148;11.648;2024-03-02T12:41:36;19.50;;;13.60;;
8466;SDS011;4270;48.148;11.648;2024-03-02T12:44:02;17.40;;;10.33;;
8466;SDS011;4270;48.148;11.648;2024-03-02T12:46:28;14.93;;;8.67;;
8466;SDS011;4270;48.148;11.648;2024-03-02T12:48:53;14.30;;;9.20;;
8466;SDS011;4270;48.148;11.648;2024-03-02T12:51:18;15.30;;;10.70;;
8466;SDS011;4270;48.148;11.648;2024-03-02T12:53:43;23.00;;;15.90;;
8466;SDS011;4270;48.148;11.648;2024-03-02T12:56:09;24.47;;;16.80;;
8466;SDS011;4270;48.148;11.648;2024-03-02T12:58:40;21.30;;;15.70;;
8466;SDS011;4270;48.148;11.648;2024-03-02T13:01:08;24.73;;;17.10;;
8466;SDS011;4270;48.148;11.648;2024-03-02T13:03:40;20.77;;;16.00;;
8466;SDS011;4270;48.148;11.648;2024-03-02T13:06:06;27.57;;;18.10;;
8466;SDS011;4270;48.148;11.648;2024-03-02T13:08:32;23.00;;;16.13;;
8466;SDS011;4270;48.148;11.648;2024-03-02T13:10:57;26.90;;;17.57;;
8466;SDS011;4270;48.148;11.648;2024-03-02T13:13:23;22.73;;;15.70;;
8466;SDS011;4270;48.148;11.648;2024-03-02T13:15:48;20.63;;;15.03;;
8466;SDS011;4270;48.148;11.648;2024-03-02T13:18:13;20.00;;;14.00;;
8466;SDS011;4270;48.148;11.648;2024-03-02T13:20:38;20.40;;;13.07;;
8466;SDS011;4270;48.148;11.648;2024-03-02T13:23:05;22.60;;;15.10;;
8466;SDS011;4270;48.148;11.648;2024-03-02T13:25:30;19.20;;;13.40;;
8466;SDS011;4270;48.148;11.648;2024-03-02T13:27:56;18.13;;;12.80;;
8466;SDS011;4270;48.148;11.648;2024-03-02T13:30:21;22.83;;;15.53;;
8466;SDS011;4270;48.148;11.648;2024-03-02T13:32:47;24.40;;;15.30;;
8466;SDS011;4270;48.148;11.648;2024-03-02T13:35:12;22.53;;;15.10;;
8466;SDS011;4270;48.148;11.648;2024-03-02T13:37:37;26.30;;;16.80;;
8466;SDS011;4270;48.148;11.648;2024-03-02T13:40:02;23.17;;;15.60;;
8466;SDS011;4270;48.148;11.648;2024-03-02T13:42:29;24.30;;;16.37;;
8466;SDS011;4270;48.148;11.648;2024-03-02T13:44:55;23.30;;;14.87;;
8466;SDS011;4270;48.148;11.648;2024-03-02T13:47:20;21.20;;;13.87;;
8466;SDS011;4270;48.148;11.648;2024-03-02T13:49:46;20.97;;;14.30;;
8466;SDS011;4270;48.148;11.648;2024-03-02T13:52:13;21.33;;;14.43;;
8466;SDS011;4270;48.148;11.648;2024-03-02T13:54:42;21.20;;;13.77;;
8466;SDS011;4270;48.148;11.648;2024-03-02T13:57:07;19.30;;;12.10;;
8466;SDS011;4270;48.148;11.648;2024-03-02T13:59:33;17.67;;;12.10;;
8466;SDS011;4270;48.148;11.648;2024-03-02T14:01:59;20.63;;;13.43;;
8466;SDS011;4270;48.148;11.648;2024-03-02T14:04:24;20.37;;;12.50;;
8466;SDS011;4270;48.148;11.648;2024-03-02T14:06:49;18.17;;;12.57;;
8466;SDS011;4270;48.148;11.648;2024-03-02T14:09:14;23.13;;;14.43;;
8466;SDS011;4270;48.148;11.648;2024-03-02T14:11:40;21.60;;;12.83;;
8466;SDS011;4270;48.148;11.648;2024-03-02T14:14:05;17.60;;;10.93;;
8466;SDS011;4270;48.148;11.648;2024-03-02T14:16:30;16.33;;;11.37;;
8466;SDS011;4270;48.148;11.648;2024-03-02T14:18:55;20.03;;;13.47;;
8466;SDS011;4270;48.148;11.648;2024-03-02T14:21:21;18.47;;;11.10;;
8466;SDS011;4270;48.148;11.648;2024-03-02T14:23:46;19.73;;;12.80;;
8466;SDS011;4270;48.148;11.648;2024-03-02T14:26:11;17.70;;;11.70;;
8466;SDS011;4270;48.148;11.648;2024-03-02T14:28:36;16.23;;;11.63;;
8466;SDS011;4270;48.148;11.648;2024-03-02T14:31:02;20.80;;;11.90;;
8466;SDS011;4270;48.148;11.648;2024-03-02T14:33:27;17.17;;;12.70;;
8466;SDS011;4270;48.148;11.648;2024-03-02T14:35:53;19.00;;;11.57;;
8466;SDS011;4270;48.148;11.648;2024-03-02T14:38:18;16.53;;;11.70;;
8466;SDS011;4270;48.148;11.648;2024-03-02T14:40:44;18.93;;;12.43;;